Atlanta, GA

1:06 AM EST on December 04, 2016 (GMT -0500)
The Hartsfield Atlanta International | | Change Station

Elev 1024 ft 33.63 °N, 84.44 °W | Updated 14 minutes ago

Overcast
Overcast
47 °F
Feels Like 47 °F
N
12
Wind Variable Wind from East

Today
High -- | Low -- °F
--% Chance of Precip.
Yesterday
High -- | Low -- °F
Precip. -- in
Pressure 30.17 in
Visibility 10.0 miles
Clouds Mostly Cloudy 6000 ft
Overcast 9000 ft
Dew Point 44 °F
Humidity 90%
Rainfall 0.00 in
Snow Depth Not available.
7:27 AM 5:29 PM
Waxing Crescent, 20% visible
METAR KATL 040552Z 08010KT 10SM BKN060 OVC090 08/07 A3016 RMK AO2 RAE28 SLP215 P0000 60006 T00830067 10094 20083 58006
Pressure 30.17 in
Visibility 10.0 miles
Clouds Mostly Cloudy 6000 ft
Overcast 9000 ft
Dew Point 44 °F
Humidity 90%
Rainfall 0.00 in
Snow Depth Not available.
7:27 AM 5:29 PM
Waxing Crescent, 20% visible
METAR KATL 040552Z 08010KT 10SM BKN060 OVC090 08/07 A3016 RMK AO2 RAE28 SLP215 P0000 60006 T00830067 10094 20083 58006

10-Day Weather Forecast

Almanac

Astronomy

Dec. 04, 2016 Rise Set
Actual Time
Civil Twilight
Nautical Twilight
Astronomical Twilight
Moon
Length of Visible Light
Length of Day
Tomorrow will be .
, % of the Moon is Illuminated

Today's Extremes

State Highs State Lows

Community

WunderPhotos

Upload Photos

1,955,586 photos uploaded!

WunderBlog® & News

Nearby

Air Quality

  Air Quality AQ Index Pollutant
Not available.

Snow Depth

Station Depth Elevation

Earthquake Activity

City Distance Mag. Time & Date
Minimum magnitude displayed is 2.5.

Coastal Water Temperatures

Place Temperature

Stations

Nearby Weather Stations

Station Location Temp. Windchill Dew Point Humidity Wind Precip. Elev Updated Type
                   

Watches & Warnings

There are currently no watches in effect.